sensor_id;sensor_type;location;lat;lon;timestamp;P1;durP1;ratioP1;P2;durP2;ratioP2
15528;SDS011;7866;52.280;9.500;2023-04-25T00:02:09;10.27;;;4.00;;
15528;SDS011;7866;52.280;9.500;2023-04-25T00:07:10;8.57;;;4.20;;
15528;SDS011;7866;52.280;9.500;2023-04-25T00:12:12;10.13;;;4.63;;
15528;SDS011;7866;52.280;9.500;2023-04-25T00:17:16;9.57;;;4.50;;
15528;SDS011;7866;52.280;9.500;2023-04-25T00:22:19;9.40;;;4.60;;
15528;SDS011;7866;52.280;9.500;2023-04-25T00:27:20;8.23;;;4.50;;
15528;SDS011;7866;52.280;9.500;2023-04-25T00:32:23;11.50;;;4.57;;
15528;SDS011;7866;52.280;9.500;2023-04-25T00:37:25;10.03;;;4.70;;
15528;SDS011;7866;52.280;9.500;2023-04-25T00:42:26;9.67;;;4.73;;
15528;SDS011;7866;52.280;9.500;2023-04-25T00:47:31;9.73;;;4.83;;
15528;SDS011;7866;52.280;9.500;2023-04-25T00:52:34;11.33;;;5.03;;
15528;SDS011;7866;52.280;9.500;2023-04-25T00:57:35;8.77;;;4.67;;
15528;SDS011;7866;52.280;9.500;2023-04-25T01:02:39;8.57;;;4.70;;
15528;SDS011;7866;52.280;9.500;2023-04-25T01:07:41;9.57;;;5.17;;
15528;SDS011;7866;52.280;9.500;2023-04-25T01:12:42;9.27;;;5.37;;
15528;SDS011;7866;52.280;9.500;2023-04-25T01:17:45;10.37;;;5.77;;
15528;SDS011;7866;52.280;9.500;2023-04-25T01:22:51;14.97;;;5.80;;
15528;SDS011;7866;52.280;9.500;2023-04-25T01:27:53;10.10;;;5.33;;
15528;SDS011;7866;52.280;9.500;2023-04-25T01:32:55;7.47;;;5.23;;
15528;SDS011;7866;52.280;9.500;2023-04-25T01:37:59;8.43;;;5.17;;
15528;SDS011;7866;52.280;9.500;2023-04-25T01:43:01;8.40;;;5.90;;
15528;SDS011;7866;52.280;9.500;2023-04-25T01:48:03;11.07;;;5.20;;
15528;SDS011;7866;52.280;9.500;2023-04-25T01:53:06;7.87;;;4.43;;
15528;SDS011;7866;52.280;9.500;2023-04-25T01:58:10;9.23;;;5.53;;
15528;SDS011;7866;52.280;9.500;2023-04-25T02:03:13;9.43;;;5.20;;
15528;SDS011;7866;52.280;9.500;2023-04-25T02:08:16;7.17;;;5.13;;
15528;SDS011;7866;52.280;9.500;2023-04-25T02:13:18;6.37;;;4.33;;
15528;SDS011;7866;52.280;9.500;2023-04-25T02:18:20;4.50;;;4.10;;
15528;SDS011;7866;52.280;9.500;2023-04-25T02:23:23;4.87;;;3.80;;
15528;SDS011;7866;52.280;9.500;2023-04-25T02:28:42;6.00;;;3.83;;
15528;SDS011;7866;52.280;9.500;2023-04-25T02:33:44;7.97;;;3.17;;
15528;SDS011;7866;52.280;9.500;2023-04-25T02:38:47;7.90;;;3.50;;
15528;SDS011;7866;52.280;9.500;2023-04-25T02:43:48;10.27;;;4.00;;
15528;SDS011;7866;52.280;9.500;2023-04-25T02:48:50;6.13;;;3.17;;
15528;SDS011;7866;52.280;9.500;2023-04-25T02:53:53;6.20;;;3.10;;
15528;SDS011;7866;52.280;9.500;2023-04-25T02:58:55;8.83;;;3.73;;
15528;SDS011;7866;52.280;9.500;2023-04-25T03:03:56;9.50;;;3.30;;
15528;SDS011;7866;52.280;9.500;2023-04-25T03:08:59;10.83;;;3.90;;
15528;SDS011;7866;52.280;9.500;2023-04-25T03:14:01;9.47;;;3.43;;
15528;SDS011;7866;52.280;9.500;2023-04-25T03:19:03;12.40;;;3.80;;
15528;SDS011;7866;52.280;9.500;2023-04-25T03:24:06;9.23;;;3.70;;
15528;SDS011;7866;52.280;9.500;2023-04-25T03:29:08;8.67;;;3.93;;
15528;SDS011;7866;52.280;9.500;2023-04-25T03:34:10;14.60;;;5.37;;
15528;SDS011;7866;52.280;9.500;2023-04-25T03:39:13;15.23;;;4.60;;
15528;SDS011;7866;52.280;9.500;2023-04-25T03:44:14;15.63;;;4.70;;
15528;SDS011;7866;52.280;9.500;2023-04-25T03:49:16;16.17;;;4.53;;
15528;SDS011;7866;52.280;9.500;2023-04-25T03:54:19;12.40;;;4.10;;
15528;SDS011;7866;52.280;9.500;2023-04-25T03:59:20;12.73;;;3.60;;
15528;SDS011;7866;52.280;9.500;2023-04-25T04:04:22;15.23;;;4.20;;
15528;SDS011;7866;52.280;9.500;2023-04-25T04:09:25;11.73;;;3.97;;
15528;SDS011;7866;52.280;9.500;2023-04-25T04:14:27;18.30;;;4.07;;
15528;SDS011;7866;52.280;9.500;2023-04-25T04:19:29;11.83;;;4.10;;
15528;SDS011;7866;52.280;9.500;2023-04-25T04:24:32;15.23;;;4.03;;
15528;SDS011;7866;52.280;9.500;2023-04-25T04:29:34;14.63;;;4.07;;
15528;SDS011;7866;52.280;9.500;2023-04-25T04:34:36;13.03;;;4.20;;
15528;SDS011;7866;52.280;9.500;2023-04-25T04:39:40;15.40;;;4.87;;
15528;SDS011;7866;52.280;9.500;2023-04-25T04:44:42;18.97;;;5.50;;
15528;SDS011;7866;52.280;9.500;2023-04-25T04:49:44;16.30;;;4.00;;
15528;SDS011;7866;52.280;9.500;2023-04-25T04:54:47;11.20;;;3.67;;
15528;SDS011;7866;52.280;9.500;2023-04-25T04:59:49;14.17;;;3.97;;
15528;SDS011;7866;52.280;9.500;2023-04-25T05:04:51;13.20;;;3.33;;
15528;SDS011;7866;52.280;9.500;2023-04-25T05:09:54;16.90;;;4.30;;
15528;SDS011;7866;52.280;9.500;2023-04-25T05:14:57;9.27;;;3.37;;
15528;SDS011;7866;52.280;9.500;2023-04-25T05:19:59;12.33;;;3.43;;
15528;SDS011;7866;52.280;9.500;2023-04-25T05:25:01;14.60;;;3.30;;
15528;SDS011;7866;52.280;9.500;2023-04-25T05:30:04;13.37;;;4.10;;
15528;SDS011;7866;52.280;9.500;2023-04-25T05:35:07;17.23;;;3.80;;
15528;SDS011;7866;52.280;9.500;2023-04-25T05:40:11;11.27;;;3.60;;
15528;SDS011;7866;52.280;9.500;2023-04-25T05:45:12;16.57;;;3.73;;
15528;SDS011;7866;52.280;9.500;2023-04-25T05:50:14;14.10;;;3.90;;
15528;SDS011;7866;52.280;9.500;2023-04-25T05:55:17;14.13;;;3.63;;
15528;SDS011;7866;52.280;9.500;2023-04-25T06:00:19;14.10;;;3.93;;
15528;SDS011;7866;52.280;9.500;2023-04-25T06:05:22;18.10;;;3.70;;
15528;SDS011;7866;52.280;9.500;2023-04-25T06:10:26;11.13;;;3.20;;
15528;SDS011;7866;52.280;9.500;2023-04-25T06:15:28;10.97;;;4.00;;
15528;SDS011;7866;52.280;9.500;2023-04-25T06:20:29;13.87;;;3.43;;
15528;SDS011;7866;52.280;9.500;2023-04-25T06:25:32;14.37;;;3.60;;
15528;SDS011;7866;52.280;9.500;2023-04-25T06:30:34;13.43;;;3.80;;
15528;SDS011;7866;52.280;9.500;2023-04-25T06:35:36;10.10;;;3.10;;
15528;SDS011;7866;52.280;9.500;2023-04-25T06:40:38;11.67;;;3.13;;
15528;SDS011;7866;52.280;9.500;2023-04-25T06:45:40;6.83;;;2.93;;
15528;SDS011;7866;52.280;9.500;2023-04-25T06:50:42;12.87;;;3.80;;
15528;SDS011;7866;52.280;9.500;2023-04-25T06:55:45;14.93;;;3.53;;
15528;SDS011;7866;52.280;9.500;2023-04-25T07:00:47;15.13;;;4.77;;
15528;SDS011;7866;52.280;9.500;2023-04-25T07:05:48;11.70;;;3.57;;
15528;SDS011;7866;52.280;9.500;2023-04-25T07:10:52;9.20;;;3.10;;
15528;SDS011;7866;52.280;9.500;2023-04-25T07:15:53;10.33;;;2.73;;
15528;SDS011;7866;52.280;9.500;2023-04-25T07:20:56;6.10;;;2.93;;
15528;SDS011;7866;52.280;9.500;2023-04-25T07:25:59;15.03;;;3.50;;
15528;SDS011;7866;52.280;9.500;2023-04-25T07:31:00;12.03;;;3.30;;
15528;SDS011;7866;52.280;9.500;2023-04-25T07:36:02;7.70;;;3.00;;
15528;SDS011;7866;52.280;9.500;2023-04-25T07:41:06;14.37;;;3.60;;
15528;SDS011;7866;52.280;9.500;2023-04-25T07:46:07;7.57;;;2.63;;
15528;SDS011;7866;52.280;9.500;2023-04-25T07:51:09;7.57;;;2.47;;
15528;SDS011;7866;52.280;9.500;2023-04-25T07:56:12;5.57;;;2.63;;
15528;SDS011;7866;52.280;9.500;2023-04-25T08:01:13;7.57;;;2.83;;
15528;SDS011;7866;52.280;9.500;2023-04-25T08:06:15;7.83;;;2.77;;
15528;SDS011;7866;52.280;9.500;2023-04-25T08:11:18;6.80;;;2.50;;
15528;SDS011;7866;52.280;9.500;2023-04-25T08:16:20;7.30;;;2.30;;
15528;SDS011;7866;52.280;9.500;2023-04-25T08:21:21;9.67;;;2.93;;
15528;SDS011;7866;52.280;9.500;2023-04-25T08:26:24;9.33;;;3.13;;
15528;SDS011;7866;52.280;9.500;2023-04-25T08:31:26;8.90;;;2.50;;
15528;SDS011;7866;52.280;9.500;2023-04-25T08:36:28;9.87;;;2.33;;
15528;SDS011;7866;52.280;9.500;2023-04-25T08:41:31;10.03;;;2.30;;
15528;SDS011;7866;52.280;9.500;2023-04-25T08:46:33;7.53;;;2.50;;
15528;SDS011;7866;52.280;9.500;2023-04-25T08:51:35;6.20;;;2.27;;
15528;SDS011;7866;52.280;9.500;2023-04-25T08:56:47;5.57;;;2.43;;
15528;SDS011;7866;52.280;9.500;2023-04-25T09:01:49;5.03;;;2.00;;
15528;SDS011;7866;52.280;9.500;2023-04-25T09:06:53;4.83;;;2.27;;
15528;SDS011;7866;52.280;9.500;2023-04-25T09:11:56;5.07;;;1.60;;
15528;SDS011;7866;52.280;9.500;2023-04-25T09:17:00;4.37;;;1.80;;
15528;SDS011;7866;52.280;9.500;2023-04-25T09:22:03;4.57;;;1.80;;
15528;SDS011;7866;52.280;9.500;2023-04-25T09:27:08;4.03;;;1.83;;
15528;SDS011;7866;52.280;9.500;2023-04-25T09:32:11;7.57;;;2.37;;
15528;SDS011;7866;52.280;9.500;2023-04-25T09:37:17;6.13;;;1.93;;
15528;SDS011;7866;52.280;9.500;2023-04-25T09:42:23;6.37;;;2.70;;
15528;SDS011;7866;52.280;9.500;2023-04-25T09:47:25;7.57;;;2.33;;
15528;SDS011;7866;52.280;9.500;2023-04-25T09:52:28;5.37;;;1.97;;
15528;SDS011;7866;52.280;9.500;2023-04-25T09:57:31;7.50;;;2.50;;
15528;SDS011;7866;52.280;9.500;2023-04-25T10:02:33;4.17;;;1.90;;
15528;SDS011;7866;52.280;9.500;2023-04-25T10:07:39;4.07;;;1.80;;
15528;SDS011;7866;52.280;9.500;2023-04-25T10:12:43;8.23;;;2.07;;
15528;SDS011;7866;52.280;9.500;2023-04-25T10:17:46;3.43;;;1.80;;
15528;SDS011;7866;52.280;9.500;2023-04-25T10:22:49;4.67;;;2.10;;
15528;SDS011;7866;52.280;9.500;2023-04-25T10:27:58;2.50;;;1.57;;
15528;SDS011;7866;52.280;9.500;2023-04-25T10:33:01;5.00;;;2.13;;
15528;SDS011;7866;52.280;9.500;2023-04-25T10:38:03;3.90;;;1.63;;
15528;SDS011;7866;52.280;9.500;2023-04-25T10:48:38;4.87;;;1.47;;
15528;SDS011;7866;52.280;9.500;2023-04-25T10:53:46;3.17;;;1.87;;
15528;SDS011;7866;52.280;9.500;2023-04-25T10:58:49;4.33;;;1.90;;
15528;SDS011;7866;52.280;9.500;2023-04-25T11:03:56;4.10;;;1.80;;
15528;SDS011;7866;52.280;9.500;2023-04-25T11:08:59;4.40;;;1.90;;
15528;SDS011;7866;52.280;9.500;2023-04-25T11:14:04;4.00;;;1.87;;
15528;SDS011;7866;52.280;9.500;2023-04-25T11:19:05;3.07;;;1.63;;
15528;SDS011;7866;52.280;9.500;2023-04-25T11:24:07;2.63;;;1.33;;
15528;SDS011;7866;52.280;9.500;2023-04-25T11:29:10;5.30;;;1.73;;
15528;SDS011;7866;52.280;9.500;2023-04-25T11:34:12;4.53;;;1.83;;
15528;SDS011;7866;52.280;9.500;2023-04-25T11:39:18;6.50;;;2.07;;
15528;SDS011;7866;52.280;9.500;2023-04-25T11:44:21;4.90;;;1.60;;
15528;SDS011;7866;52.280;9.500;2023-04-25T11:49:23;5.50;;;1.90;;
15528;SDS011;7866;52.280;9.500;2023-04-25T11:54:25;5.60;;;1.83;;
15528;SDS011;7866;52.280;9.500;2023-04-25T11:59:29;6.07;;;1.87;;
15528;SDS011;7866;52.280;9.500;2023-04-25T12:04:30;5.60;;;1.90;;
15528;SDS011;7866;52.280;9.500;2023-04-25T12:09:33;4.53;;;1.40;;
15528;SDS011;7866;52.280;9.500;2023-04-25T12:14:36;1.83;;;1.03;;
15528;SDS011;7866;52.280;9.500;2023-04-25T12:19:38;2.17;;;0.93;;
15528;SDS011;7866;52.280;9.500;2023-04-25T12:24:44;4.27;;;1.77;;
15528;SDS011;7866;52.280;9.500;2023-04-25T12:29:54;3.40;;;2.00;;
15528;SDS011;7866;52.280;9.500;2023-04-25T12:34:57;3.43;;;1.50;;
15528;SDS011;7866;52.280;9.500;2023-04-25T12:39:58;3.83;;;1.70;;
15528;SDS011;7866;52.280;9.500;2023-04-25T12:45:01;1.90;;;1.10;;
15528;SDS011;7866;52.280;9.500;2023-04-25T12:50:03;2.17;;;1.10;;
15528;SDS011;7866;52.280;9.500;2023-04-25T12:55:06;2.70;;;1.27;;
15528;SDS011;7866;52.280;9.500;2023-04-25T13:00:10;1.93;;;1.00;;
15528;SDS011;7866;52.280;9.500;2023-04-25T13:05:14;2.00;;;1.13;;
15528;SDS011;7866;52.280;9.500;2023-04-25T13:10:35;3.00;;;1.50;;
15528;SDS011;7866;52.280;9.500;2023-04-25T13:15:40;2.50;;;1.50;;
15528;SDS011;7866;52.280;9.500;2023-04-25T13:20:42;3.23;;;1.53;;
15528;SDS011;7866;52.280;9.500;2023-04-25T13:25:43;2.43;;;1.40;;
15528;SDS011;7866;52.280;9.500;2023-04-25T13:30:46;2.53;;;1.30;;
15528;SDS011;7866;52.280;9.500;2023-04-25T13:35:49;2.00;;;1.37;;
15528;SDS011;7866;52.280;9.500;2023-04-25T13:40:53;4.73;;;1.40;;
15528;SDS011;7866;52.280;9.500;2023-04-25T13:45:56;3.20;;;1.37;;
15528;SDS011;7866;52.280;9.500;2023-04-25T13:50:58;5.70;;;2.97;;
15528;SDS011;7866;52.280;9.500;2023-04-25T13:56:00;3.23;;;1.70;;
15528;SDS011;7866;52.280;9.500;2023-04-25T14:01:04;3.63;;;1.63;;
15528;SDS011;7866;52.280;9.500;2023-04-25T14:06:05;3.83;;;2.93;;
15528;SDS011;7866;52.280;9.500;2023-04-25T14:11:08;5.40;;;2.00;;
15528;SDS011;7866;52.280;9.500;2023-04-25T14:16:11;2.90;;;1.57;;
15528;SDS011;7866;52.280;9.500;2023-04-25T14:21:13;2.77;;;2.00;;
15528;SDS011;7866;52.280;9.500;2023-04-25T14:26:15;4.10;;;1.70;;
15528;SDS011;7866;52.280;9.500;2023-04-25T14:31:17;4.10;;;1.33;;
15528;SDS011;7866;52.280;9.500;2023-04-25T14:36:19;3.23;;;1.23;;
15528;SDS011;7866;52.280;9.500;2023-04-25T14:41:21;5.63;;;2.20;;
15528;SDS011;7866;52.280;9.500;2023-04-25T14:46:24;3.40;;;2.13;;
15528;SDS011;7866;52.280;9.500;2023-04-25T14:51:26;5.87;;;1.77;;
15528;SDS011;7866;52.280;9.500;2023-04-25T14:56:28;2.33;;;1.40;;
15528;SDS011;7866;52.280;9.500;2023-04-25T15:01:31;4.33;;;1.30;;
15528;SDS011;7866;52.280;9.500;2023-04-25T15:06:33;4.43;;;1.93;;
15528;SDS011;7866;52.280;9.500;2023-04-25T15:11:35;4.10;;;1.97;;
15528;SDS011;7866;52.280;9.500;2023-04-25T15:16:38;3.63;;;1.60;;
15528;SDS011;7866;52.280;9.500;2023-04-25T15:21:40;3.07;;;1.37;;
15528;SDS011;7866;52.280;9.500;2023-04-25T15:26:42;4.47;;;1.37;;
15528;SDS011;7866;52.280;9.500;2023-04-25T15:31:45;4.47;;;2.30;;
15528;SDS011;7866;52.280;9.500;2023-04-25T15:36:46;2.87;;;1.57;;
15528;SDS011;7866;52.280;9.500;2023-04-25T15:41:48;2.47;;;1.37;;
15528;SDS011;7866;52.280;9.500;2023-04-25T15:46:51;3.80;;;1.60;;
15528;SDS011;7866;52.280;9.500;2023-04-25T15:51:53;8.20;;;3.77;;
15528;SDS011;7866;52.280;9.500;2023-04-25T15:56:55;3.60;;;1.80;;
15528;SDS011;7866;52.280;9.500;2023-04-25T16:01:58;2.87;;;1.40;;
15528;SDS011;7866;52.280;9.500;2023-04-25T16:07:00;4.17;;;1.50;;
15528;SDS011;7866;52.280;9.500;2023-04-25T16:12:02;2.50;;;1.37;;
15528;SDS011;7866;52.280;9.500;2023-04-25T16:17:06;3.00;;;1.50;;
15528;SDS011;7866;52.280;9.500;2023-04-25T16:22:07;3.03;;;1.40;;
15528;SDS011;7866;52.280;9.500;2023-04-25T16:27:12;2.27;;;1.43;;
15528;SDS011;7866;52.280;9.500;2023-04-25T16:32:15;2.53;;;1.33;;
15528;SDS011;7866;52.280;9.500;2023-04-25T16:37:17;4.00;;;1.60;;
15528;SDS011;7866;52.280;9.500;2023-04-25T16:42:18;2.80;;;1.90;;
15528;SDS011;7866;52.280;9.500;2023-04-25T16:47:21;3.17;;;1.60;;
15528;SDS011;7866;52.280;9.500;2023-04-25T16:52:24;3.43;;;1.57;;
15528;SDS011;7866;52.280;9.500;2023-04-25T16:57:25;2.47;;;1.30;;
15528;SDS011;7866;52.280;9.500;2023-04-25T17:02:28;3.20;;;1.70;;
15528;SDS011;7866;52.280;9.500;2023-04-25T17:07:30;2.60;;;1.37;;
15528;SDS011;7866;52.280;9.500;2023-04-25T17:12:32;2.07;;;1.70;;
15528;SDS011;7866;52.280;9.500;2023-04-25T17:17:35;5.17;;;3.17;;
15528;SDS011;7866;52.280;9.500;2023-04-25T17:22:36;3.63;;;1.60;;
15528;SDS011;7866;52.280;9.500;2023-04-25T17:27:38;3.80;;;1.53;;
15528;SDS011;7866;52.280;9.500;2023-04-25T17:32:41;3.07;;;1.30;;
15528;SDS011;7866;52.280;9.500;2023-04-25T17:37:42;3.63;;;1.90;;
15528;SDS011;7866;52.280;9.500;2023-04-25T17:42:45;3.63;;;1.50;;
15528;SDS011;7866;52.280;9.500;2023-04-25T17:47:48;2.73;;;1.40;;
15528;SDS011;7866;52.280;9.500;2023-04-25T17:52:50;4.10;;;1.77;;
15528;SDS011;7866;52.280;9.500;2023-04-25T17:57:54;2.20;;;1.83;;
15528;SDS011;7866;52.280;9.500;2023-04-25T18:02:57;3.57;;;1.90;;
15528;SDS011;7866;52.280;9.500;2023-04-25T18:07:59;3.33;;;1.33;;
15528;SDS011;7866;52.280;9.500;2023-04-25T18:13:01;4.93;;;1.50;;
15528;SDS011;7866;52.280;9.500;2023-04-25T18:18:04;2.47;;;1.43;;
15528;SDS011;7866;52.280;9.500;2023-04-25T18:23:14;2.50;;;1.50;;
15528;SDS011;7866;52.280;9.500;2023-04-25T18:28:15;3.23;;;1.47;;
15528;SDS011;7866;52.280;9.500;2023-04-25T18:33:20;3.63;;;1.93;;
15528;SDS011;7866;52.280;9.500;2023-04-25T18:38:22;4.27;;;1.73;;
15528;SDS011;7866;52.280;9.500;2023-04-25T18:43:23;3.43;;;1.67;;
15528;SDS011;7866;52.280;9.500;2023-04-25T18:48:27;3.73;;;1.60;;
15528;SDS011;7866;52.280;9.500;2023-04-25T18:53:28;5.20;;;1.80;;
15528;SDS011;7866;52.280;9.500;2023-04-25T18:58:30;3.97;;;1.70;;
15528;SDS011;7866;52.280;9.500;2023-04-25T19:03:34;5.33;;;1.60;;
15528;SDS011;7866;52.280;9.500;2023-04-25T19:08:35;3.80;;;1.70;;
15528;SDS011;7866;52.280;9.500;2023-04-25T19:13:37;2.97;;;1.50;;
15528;SDS011;7866;52.280;9.500;2023-04-25T19:18:40;2.07;;;1.40;;
15528;SDS011;7866;52.280;9.500;2023-04-25T19:23:42;4.53;;;1.43;;
15528;SDS011;7866;52.280;9.500;2023-04-25T19:28:43;2.33;;;1.40;;
15528;SDS011;7866;52.280;9.500;2023-04-25T19:33:46;2.07;;;1.53;;
15528;SDS011;7866;52.280;9.500;2023-04-25T19:38:48;4.60;;;1.30;;
15528;SDS011;7866;52.280;9.500;2023-04-25T19:43:50;2.63;;;1.40;;
15528;SDS011;7866;52.280;9.500;2023-04-25T19:48:53;6.50;;;2.07;;
15528;SDS011;7866;52.280;9.500;2023-04-25T19:53:54;3.33;;;1.83;;
15528;SDS011;7866;52.280;9.500;2023-04-25T19:58:56;4.83;;;1.83;;
15528;SDS011;7866;52.280;9.500;2023-04-25T20:03:59;4.47;;;1.80;;
15528;SDS011;7866;52.280;9.500;2023-04-25T20:09:01;4.10;;;1.37;;
15528;SDS011;7866;52.280;9.500;2023-04-25T20:14:03;3.73;;;1.70;;
15528;SDS011;7866;52.280;9.500;2023-04-25T20:19:06;3.67;;;1.70;;
15528;SDS011;7866;52.280;9.500;2023-04-25T20:24:08;3.93;;;1.37;;
15528;SDS011;7866;52.280;9.500;2023-04-25T20:29:10;7.00;;;1.47;;
15528;SDS011;7866;52.280;9.500;2023-04-25T20:34:13;5.37;;;1.50;;
15528;SDS011;7866;52.280;9.500;2023-04-25T20:39:15;5.33;;;1.67;;
15528;SDS011;7866;52.280;9.500;2023-04-25T20:44:17;3.53;;;1.60;;
15528;SDS011;7866;52.280;9.500;2023-04-25T20:49:22;5.27;;;1.73;;
15528;SDS011;7866;52.280;9.500;2023-04-25T20:54:24;7.03;;;1.50;;
15528;SDS011;7866;52.280;9.500;2023-04-25T20:59:26;5.00;;;1.77;;
15528;SDS011;7866;52.280;9.500;2023-04-25T21:04:30;5.40;;;1.60;;
15528;SDS011;7866;52.280;9.500;2023-04-25T21:09:31;3.50;;;1.47;;
15528;SDS011;7866;52.280;9.500;2023-04-25T21:14:33;2.57;;;1.33;;
15528;SDS011;7866;52.280;9.500;2023-04-25T21:19:36;7.07;;;1.90;;
15528;SDS011;7866;52.280;9.500;2023-04-25T21:24:38;5.43;;;1.67;;
15528;SDS011;7866;52.280;9.500;2023-04-25T21:29:39;2.77;;;1.30;;
15528;SDS011;7866;52.280;9.500;2023-04-25T21:34:42;3.30;;;1.60;;
15528;SDS011;7866;52.280;9.500;2023-04-25T21:39:44;5.13;;;1.70;;
15528;SDS011;7866;52.280;9.500;2023-04-25T21:44:46;6.87;;;1.90;;
15528;SDS011;7866;52.280;9.500;2023-04-25T21:49:50;6.47;;;1.93;;
15528;SDS011;7866;52.280;9.500;2023-04-25T21:54:51;3.33;;;1.50;;
15528;SDS011;7866;52.280;9.500;2023-04-25T21:59:54;3.97;;;1.50;;
15528;SDS011;7866;52.280;9.500;2023-04-25T22:04:57;7.13;;;1.97;;
15528;SDS011;7866;52.280;9.500;2023-04-25T22:09:58;7.77;;;1.93;;
15528;SDS011;7866;52.280;9.500;2023-04-25T22:15:00;3.63;;;1.50;;
15528;SDS011;7866;52.280;9.500;2023-04-25T22:20:04;4.27;;;1.73;;
15528;SDS011;7866;52.280;9.500;2023-04-25T22:25:09;4.87;;;1.50;;
15528;SDS011;7866;52.280;9.500;2023-04-25T22:30:12;8.10;;;1.90;;
15528;SDS011;7866;52.280;9.500;2023-04-25T22:35:15;4.07;;;1.50;;
15528;SDS011;7866;52.280;9.500;2023-04-25T22:40:16;5.90;;;1.93;;
15528;SDS011;7866;52.280;9.500;2023-04-25T22:45:18;6.37;;;2.20;;
15528;SDS011;7866;52.280;9.500;2023-04-25T22:50:21;4.10;;;1.63;;
15528;SDS011;7866;52.280;9.500;2023-04-25T22:55:23;7.90;;;1.83;;
15528;SDS011;7866;52.280;9.500;2023-04-25T23:00:25;7.13;;;1.70;;
15528;SDS011;7866;52.280;9.500;2023-04-25T23:05:30;6.17;;;2.07;;
15528;SDS011;7866;52.280;9.500;2023-04-25T23:10:33;6.07;;;2.23;;
15528;SDS011;7866;52.280;9.500;2023-04-25T23:15:36;4.50;;;1.60;;
15528;SDS011;7866;52.280;9.500;2023-04-25T23:20:38;5.37;;;2.00;;
15528;SDS011;7866;52.280;9.500;2023-04-25T23:25:40;10.63;;;2.50;;
15528;SDS011;7866;52.280;9.500;2023-04-25T23:30:42;5.07;;;1.80;;
15528;SDS011;7866;52.280;9.500;2023-04-25T23:35:45;6.90;;;1.70;;
15528;SDS011;7866;52.280;9.500;2023-04-25T23:40:46;6.17;;;2.00;;
15528;SDS011;7866;52.280;9.500;2023-04-25T23:45:48;4.67;;;1.70;;
15528;SDS011;7866;52.280;9.500;2023-04-25T23:51:08;7.27;;;1.93;;
15528;SDS011;7866;52.280;9.500;2023-04-25T23:56:10;5.40;;;2.00;;
